Terminal Aerodrome Forecast
Issued by NWS Huntsville, AL

Home | Current Version | Previous Version | Text Only | Print | Product List | Glossary On
Versions: 1 2 3 4 5 6 7 8 9 10 11 12 13 14
000
FTUS44 KHUN 181740
TAFHSV
TAF
KHSV 181740Z 1818/1918 21015G25KT P6SM VCSH OVC020
     FM182100 23020G25KT 6SM -RA VCTS BKN030CB OVC040
     FM190000 28020G30KT 5SM SHRA VCTS BKN025CB
     FM190200 34020G30KT 5SM -SHRA BR OVC020
     FM190400 34008G16KT P6SM BKN015
     FM190900 33013KT P6SM FEW250
     FM191600 33014KT P6SM SKC=

USA.gov is the U.S. government's official web portal to all federal, state and local government web resources and services.